sensor_id;sensor_type;location;lat;lon;timestamp;P1;durP1;ratioP1;P2;durP2;ratioP2
72791;SDS011;60907;53.268;8.764;2023-07-20T00:01:05;2.40;;;1.60;;
72791;SDS011;60907;53.268;8.764;2023-07-20T00:03:31;2.42;;;1.70;;
72791;SDS011;60907;53.268;8.764;2023-07-20T00:05:56;3.90;;;2.00;;
72791;SDS011;60907;53.268;8.764;2023-07-20T00:08:21;3.03;;;2.15;;
72791;SDS011;60907;53.268;8.764;2023-07-20T00:10:47;2.53;;;1.70;;
72791;SDS011;60907;53.268;8.764;2023-07-20T00:13:12;3.28;;;1.60;;
72791;SDS011;60907;53.268;8.764;2023-07-20T00:15:38;2.20;;;1.52;;
72791;SDS011;60907;53.268;8.764;2023-07-20T00:18:04;2.28;;;1.50;;
72791;SDS011;60907;53.268;8.764;2023-07-20T00:20:30;1.95;;;1.50;;
72791;SDS011;60907;53.268;8.764;2023-07-20T00:22:55;1.20;;;1.10;;
72791;SDS011;60907;53.268;8.764;2023-07-20T00:25:23;2.03;;;1.60;;
72791;SDS011;60907;53.268;8.764;2023-07-20T00:27:49;2.33;;;1.52;;
72791;SDS011;60907;53.268;8.764;2023-07-20T00:30:14;3.67;;;1.55;;
72791;SDS011;60907;53.268;8.764;2023-07-20T00:32:40;1.30;;;1.17;;
72791;SDS011;60907;53.268;8.764;2023-07-20T00:35:05;3.95;;;1.73;;
72791;SDS011;60907;53.268;8.764;2023-07-20T00:37:31;1.60;;;1.23;;
72791;SDS011;60907;53.268;8.764;2023-07-20T00:39:56;1.67;;;1.40;;
72791;SDS011;60907;53.268;8.764;2023-07-20T00:42:22;4.47;;;1.63;;
72791;SDS011;60907;53.268;8.764;2023-07-20T00:44:47;1.77;;;1.60;;
72791;SDS011;60907;53.268;8.764;2023-07-20T00:47:12;1.87;;;1.50;;
72791;SDS011;60907;53.268;8.764;2023-07-20T00:49:38;2.38;;;1.80;;
72791;SDS011;60907;53.268;8.764;2023-07-20T00:52:04;1.83;;;1.30;;
72791;SDS011;60907;53.268;8.764;2023-07-20T00:54:31;2.05;;;1.50;;
72791;SDS011;60907;53.268;8.764;2023-07-20T00:56:57;2.15;;;1.25;;
72791;SDS011;60907;53.268;8.764;2023-07-20T00:59:25;1.83;;;1.40;;
72791;SDS011;60907;53.268;8.764;2023-07-20T01:01:51;3.78;;;1.63;;
72791;SDS011;60907;53.268;8.764;2023-07-20T01:04:16;1.83;;;1.10;;
72791;SDS011;60907;53.268;8.764;2023-07-20T01:06:45;1.83;;;1.48;;
72791;SDS011;60907;53.268;8.764;2023-07-20T01:12:32;2.05;;;1.35;;
72791;SDS011;60907;53.268;8.764;2023-07-20T01:14:58;1.15;;;0.80;;
72791;SDS011;60907;53.268;8.764;2023-07-20T01:17:23;1.42;;;1.20;;
72791;SDS011;60907;53.268;8.764;2023-07-20T01:19:49;1.75;;;1.33;;
72791;SDS011;60907;53.268;8.764;2023-07-20T01:30:40;1.55;;;1.30;;
72791;SDS011;60907;53.268;8.764;2023-07-20T01:33:11;2.22;;;1.30;;
72791;SDS011;60907;53.268;8.764;2023-07-20T01:35:38;1.73;;;1.25;;
72791;SDS011;60907;53.268;8.764;2023-07-20T01:40:30;2.10;;;1.90;;
72791;SDS011;60907;53.268;8.764;2023-07-20T01:42:56;2.78;;;1.52;;
72791;SDS011;60907;53.268;8.764;2023-07-20T01:45:21;1.90;;;1.60;;
72791;SDS011;60907;53.268;8.764;2023-07-20T01:47:47;2.67;;;1.77;;
72791;SDS011;60907;53.268;8.764;2023-07-20T01:50:12;1.73;;;1.50;;
72791;SDS011;60907;53.268;8.764;2023-07-20T01:52:38;1.70;;;1.38;;
72791;SDS011;60907;53.268;8.764;2023-07-20T01:55:03;1.40;;;1.27;;
72791;SDS011;60907;53.268;8.764;2023-07-20T01:57:29;1.50;;;1.40;;
72791;SDS011;60907;53.268;8.764;2023-07-20T01:59:55;1.48;;;0.98;;
72791;SDS011;60907;53.268;8.764;2023-07-20T02:02:20;2.08;;;1.35;;
72791;SDS011;60907;53.268;8.764;2023-07-20T02:04:46;2.03;;;1.45;;
72791;SDS011;60907;53.268;8.764;2023-07-20T02:07:11;1.85;;;1.30;;
72791;SDS011;60907;53.268;8.764;2023-07-20T02:09:36;1.67;;;1.05;;
72791;SDS011;60907;53.268;8.764;2023-07-20T02:12:02;2.10;;;1.50;;
72791;SDS011;60907;53.268;8.764;2023-07-20T02:14:27;2.78;;;1.55;;
72791;SDS011;60907;53.268;8.764;2023-07-20T02:16:53;1.60;;;1.50;;
72791;SDS011;60907;53.268;8.764;2023-07-20T02:19:24;2.22;;;1.63;;
72791;SDS011;60907;53.268;8.764;2023-07-20T02:21:50;1.35;;;1.25;;
72791;SDS011;60907;53.268;8.764;2023-07-20T02:24:15;1.63;;;1.52;;
72791;SDS011;60907;53.268;8.764;2023-07-20T02:26:41;1.50;;;1.38;;
72791;SDS011;60907;53.268;8.764;2023-07-20T02:29:07;2.30;;;1.52;;
72791;SDS011;60907;53.268;8.764;2023-07-20T02:31:33;2.45;;;1.50;;
72791;SDS011;60907;53.268;8.764;2023-07-20T02:33:58;1.98;;;1.30;;
72791;SDS011;60907;53.268;8.764;2023-07-20T02:36:24;2.50;;;1.55;;
72791;SDS011;60907;53.268;8.764;2023-07-20T02:38:49;2.13;;;1.63;;
72791;SDS011;60907;53.268;8.764;2023-07-20T02:41:14;3.28;;;1.90;;
72791;SDS011;60907;53.268;8.764;2023-07-20T02:43:40;2.20;;;2.00;;
72791;SDS011;60907;53.268;8.764;2023-07-20T02:46:05;2.75;;;1.92;;
72791;SDS011;60907;53.268;8.764;2023-07-20T02:48:31;2.53;;;1.77;;
72791;SDS011;60907;53.268;8.764;2023-07-20T02:50:56;2.47;;;2.00;;
72791;SDS011;60907;53.268;8.764;2023-07-20T02:53:22;2.05;;;1.77;;
72791;SDS011;60907;53.268;8.764;2023-07-20T02:55:47;2.97;;;1.90;;
72791;SDS011;60907;53.268;8.764;2023-07-20T02:58:12;4.10;;;1.73;;
72791;SDS011;60907;53.268;8.764;2023-07-20T03:00:38;2.67;;;1.60;;
72791;SDS011;60907;53.268;8.764;2023-07-20T03:03:03;3.05;;;2.25;;
72791;SDS011;60907;53.268;8.764;2023-07-20T03:05:29;3.88;;;2.90;;
72791;SDS011;60907;53.268;8.764;2023-07-20T03:07:55;3.72;;;2.00;;
72791;SDS011;60907;53.268;8.764;2023-07-20T03:10:21;2.65;;;2.10;;
72791;SDS011;60907;53.268;8.764;2023-07-20T03:12:46;4.45;;;2.30;;
72791;SDS011;60907;53.268;8.764;2023-07-20T03:15:11;2.80;;;2.17;;
72791;SDS011;60907;53.268;8.764;2023-07-20T03:17:37;3.35;;;2.00;;
72791;SDS011;60907;53.268;8.764;2023-07-20T03:20:02;3.10;;;2.00;;
72791;SDS011;60907;53.268;8.764;2023-07-20T03:22:28;4.78;;;2.10;;
72791;SDS011;60907;53.268;8.764;2023-07-20T03:24:54;2.78;;;2.10;;
72791;SDS011;60907;53.268;8.764;2023-07-20T03:27:19;3.65;;;2.08;;
72791;SDS011;60907;53.268;8.764;2023-07-20T03:29:45;2.47;;;2.22;;
72791;SDS011;60907;53.268;8.764;2023-07-20T03:32:10;3.20;;;1.95;;
72791;SDS011;60907;53.268;8.764;2023-07-20T03:34:36;2.83;;;2.10;;
72791;SDS011;60907;53.268;8.764;2023-07-20T03:37:01;4.80;;;2.13;;
72791;SDS011;60907;53.268;8.764;2023-07-20T03:39:29;2.67;;;2.22;;
72791;SDS011;60907;53.268;8.764;2023-07-20T03:41:55;3.13;;;2.40;;
72791;SDS011;60907;53.268;8.764;2023-07-20T03:44:20;2.67;;;2.40;;
72791;SDS011;60907;53.268;8.764;2023-07-20T03:46:46;3.33;;;2.42;;
72791;SDS011;60907;53.268;8.764;2023-07-20T03:49:11;2.55;;;1.85;;
72791;SDS011;60907;53.268;8.764;2023-07-20T03:51:37;2.90;;;2.05;;
72791;SDS011;60907;53.268;8.764;2023-07-20T03:54:02;3.75;;;2.25;;
72791;SDS011;60907;53.268;8.764;2023-07-20T03:56:28;3.60;;;2.60;;
72791;SDS011;60907;53.268;8.764;2023-07-20T03:58:53;2.30;;;2.03;;
72791;SDS011;60907;53.268;8.764;2023-07-20T04:01:19;3.55;;;2.58;;
72791;SDS011;60907;53.268;8.764;2023-07-20T04:03:44;2.85;;;2.30;;
72791;SDS011;60907;53.268;8.764;2023-07-20T04:06:10;2.53;;;2.03;;
72791;SDS011;60907;53.268;8.764;2023-07-20T04:08:35;2.47;;;2.05;;
72791;SDS011;60907;53.268;8.764;2023-07-20T04:11:02;3.15;;;2.35;;
72791;SDS011;60907;53.268;8.764;2023-07-20T04:13:27;3.60;;;2.20;;
72791;SDS011;60907;53.268;8.764;2023-07-20T04:15:53;2.63;;;2.33;;
72791;SDS011;60907;53.268;8.764;2023-07-20T04:18:20;3.60;;;2.00;;
72791;SDS011;60907;53.268;8.764;2023-07-20T04:20:45;2.90;;;2.33;;
72791;SDS011;60907;53.268;8.764;2023-07-20T04:23:10;3.47;;;2.08;;
72791;SDS011;60907;53.268;8.764;2023-07-20T04:25:38;2.65;;;2.00;;
72791;SDS011;60907;53.268;8.764;2023-07-20T04:28:05;3.22;;;2.08;;
72791;SDS011;60907;53.268;8.764;2023-07-20T04:30:34;4.20;;;2.13;;
72791;SDS011;60907;53.268;8.764;2023-07-20T04:33:00;2.38;;;1.92;;
72791;SDS011;60907;53.268;8.764;2023-07-20T04:35:45;3.88;;;2.10;;
72791;SDS011;60907;53.268;8.764;2023-07-20T04:38:18;2.67;;;1.70;;
72791;SDS011;60907;53.268;8.764;2023-07-20T04:40:48;2.58;;;2.08;;
72791;SDS011;60907;53.268;8.764;2023-07-20T04:43:15;3.53;;;2.38;;
72791;SDS011;60907;53.268;8.764;2023-07-20T04:45:41;3.58;;;2.08;;
72791;SDS011;60907;53.268;8.764;2023-07-20T04:48:08;2.80;;;2.00;;
72791;SDS011;60907;53.268;8.764;2023-07-20T04:50:38;2.78;;;2.05;;
72791;SDS011;60907;53.268;8.764;2023-07-20T04:53:06;3.30;;;2.13;;
72791;SDS011;60907;53.268;8.764;2023-07-20T04:55:32;2.60;;;2.13;;
72791;SDS011;60907;53.268;8.764;2023-07-20T04:58:02;3.20;;;1.98;;
72791;SDS011;60907;53.268;8.764;2023-07-20T05:00:28;3.85;;;2.17;;
72791;SDS011;60907;53.268;8.764;2023-07-20T05:02:54;3.03;;;1.98;;
72791;SDS011;60907;53.268;8.764;2023-07-20T05:05:20;4.15;;;2.50;;
72791;SDS011;60907;53.268;8.764;2023-07-20T05:07:46;3.33;;;2.17;;
72791;SDS011;60907;53.268;8.764;2023-07-20T05:10:11;2.95;;;2.15;;
72791;SDS011;60907;53.268;8.764;2023-07-20T05:12:37;3.17;;;1.98;;
72791;SDS011;60907;53.268;8.764;2023-07-20T05:15:02;3.63;;;1.83;;
72791;SDS011;60907;53.268;8.764;2023-07-20T05:17:28;2.60;;;1.92;;
72791;SDS011;60907;53.268;8.764;2023-07-20T05:19:54;3.13;;;2.33;;
72791;SDS011;60907;53.268;8.764;2023-07-20T05:22:20;2.10;;;1.90;;
72791;SDS011;60907;53.268;8.764;2023-07-20T05:24:45;2.10;;;1.45;;
72791;SDS011;60907;53.268;8.764;2023-07-20T05:27:10;3.13;;;2.28;;
72791;SDS011;60907;53.268;8.764;2023-07-20T05:29:36;2.65;;;2.13;;
72791;SDS011;60907;53.268;8.764;2023-07-20T05:32:01;3.17;;;2.13;;
72791;SDS011;60907;53.268;8.764;2023-07-20T05:34:28;3.80;;;2.10;;
72791;SDS011;60907;53.268;8.764;2023-07-20T05:36:53;5.38;;;1.65;;
72791;SDS011;60907;53.268;8.764;2023-07-20T05:39:19;2.35;;;1.63;;
72791;SDS011;60907;53.268;8.764;2023-07-20T05:41:45;2.97;;;1.60;;
72791;SDS011;60907;53.268;8.764;2023-07-20T05:44:10;2.38;;;2.13;;
72791;SDS011;60907;53.268;8.764;2023-07-20T05:46:36;1.92;;;1.63;;
72791;SDS011;60907;53.268;8.764;2023-07-20T05:49:01;3.25;;;1.77;;
72791;SDS011;60907;53.268;8.764;2023-07-20T05:51:27;2.25;;;1.75;;
72791;SDS011;60907;53.268;8.764;2023-07-20T05:53:52;1.88;;;1.63;;
72791;SDS011;60907;53.268;8.764;2023-07-20T05:56:18;5.07;;;1.98;;
72791;SDS011;60907;53.268;8.764;2023-07-20T05:58:44;3.50;;;2.00;;
72791;SDS011;60907;53.268;8.764;2023-07-20T06:01:09;1.70;;;1.60;;
72791;SDS011;60907;53.268;8.764;2023-07-20T06:03:34;2.25;;;1.50;;
72791;SDS011;60907;53.268;8.764;2023-07-20T06:06:00;2.53;;;1.30;;
72791;SDS011;60907;53.268;8.764;2023-07-20T06:08:30;3.63;;;1.38;;
72791;SDS011;60907;53.268;8.764;2023-07-20T06:10:56;3.47;;;1.40;;
72791;SDS011;60907;53.268;8.764;2023-07-20T06:13:22;2.38;;;1.10;;
72791;SDS011;60907;53.268;8.764;2023-07-20T06:15:48;2.05;;;1.58;;
72791;SDS011;60907;53.268;8.764;2023-07-20T06:18:14;4.05;;;1.52;;
72791;SDS011;60907;53.268;8.764;2023-07-20T06:20:39;6.05;;;1.55;;
72791;SDS011;60907;53.268;8.764;2023-07-20T06:23:05;4.05;;;1.50;;
72791;SDS011;60907;53.268;8.764;2023-07-20T06:25:31;1.20;;;1.10;;
72791;SDS011;60907;53.268;8.764;2023-07-20T06:27:56;1.58;;;1.30;;
72791;SDS011;60907;53.268;8.764;2023-07-20T06:30:22;1.98;;;1.33;;
72791;SDS011;60907;53.268;8.764;2023-07-20T06:32:48;3.53;;;0.82;;
72791;SDS011;60907;53.268;8.764;2023-07-20T06:35:14;3.17;;;0.80;;
72791;SDS011;60907;53.268;8.764;2023-07-20T06:37:40;1.35;;;1.23;;
72791;SDS011;60907;53.268;8.764;2023-07-20T06:40:06;1.52;;;0.90;;
72791;SDS011;60907;53.268;8.764;2023-07-20T06:42:34;3.30;;;1.17;;
72791;SDS011;60907;53.268;8.764;2023-07-20T06:44:59;3.22;;;0.63;;
72791;SDS011;60907;53.268;8.764;2023-07-20T06:47:25;2.30;;;1.25;;
72791;SDS011;60907;53.268;8.764;2023-07-20T06:49:50;2.70;;;0.85;;
72791;SDS011;60907;53.268;8.764;2023-07-20T06:52:15;1.95;;;1.00;;
72791;SDS011;60907;53.268;8.764;2023-07-20T06:54:41;1.90;;;1.17;;
72791;SDS011;60907;53.268;8.764;2023-07-20T06:57:07;1.38;;;1.15;;
72791;SDS011;60907;53.268;8.764;2023-07-20T06:59:32;4.57;;;0.88;;
72791;SDS011;60907;53.268;8.764;2023-07-20T07:01:57;2.80;;;1.00;;
72791;SDS011;60907;53.268;8.764;2023-07-20T07:04:23;3.00;;;0.73;;
72791;SDS011;60907;53.268;8.764;2023-07-20T07:06:48;1.67;;;1.15;;
72791;SDS011;60907;53.268;8.764;2023-07-20T07:09:14;2.35;;;1.17;;
72791;SDS011;60907;53.268;8.764;2023-07-20T07:11:39;1.27;;;1.17;;
72791;SDS011;60907;53.268;8.764;2023-07-20T07:14:05;3.13;;;0.70;;
72791;SDS011;60907;53.268;8.764;2023-07-20T07:16:30;1.85;;;1.15;;
72791;SDS011;60907;53.268;8.764;2023-07-20T07:18:56;3.53;;;1.38;;
72791;SDS011;60907;53.268;8.764;2023-07-20T07:21:21;2.90;;;1.08;;
72791;SDS011;60907;53.268;8.764;2023-07-20T07:23:47;2.65;;;0.93;;
72791;SDS011;60907;53.268;8.764;2023-07-20T07:26:13;4.63;;;1.13;;
72791;SDS011;60907;53.268;8.764;2023-07-20T07:28:38;1.63;;;1.00;;
72791;SDS011;60907;53.268;8.764;2023-07-20T07:31:04;1.25;;;0.65;;
72791;SDS011;60907;53.268;8.764;2023-07-20T07:33:30;2.33;;;0.95;;
72791;SDS011;60907;53.268;8.764;2023-07-20T07:35:56;2.05;;;1.38;;
72791;SDS011;60907;53.268;8.764;2023-07-20T07:38:22;1.73;;;0.82;;
72791;SDS011;60907;53.268;8.764;2023-07-20T07:40:47;2.92;;;1.48;;
72791;SDS011;60907;53.268;8.764;2023-07-20T07:43:13;2.78;;;0.95;;
72791;SDS011;60907;53.268;8.764;2023-07-20T07:45:39;3.70;;;1.48;;
72791;SDS011;60907;53.268;8.764;2023-07-20T07:48:05;3.30;;;1.30;;
72791;SDS011;60907;53.268;8.764;2023-07-20T07:50:30;2.35;;;1.20;;
72791;SDS011;60907;53.268;8.764;2023-07-20T07:52:56;2.17;;;1.10;;
72791;SDS011;60907;53.268;8.764;2023-07-20T07:55:22;3.80;;;1.45;;
72791;SDS011;60907;53.268;8.764;2023-07-20T07:57:47;3.40;;;0.98;;
72791;SDS011;60907;53.268;8.764;2023-07-20T08:00:13;4.20;;;1.73;;
72791;SDS011;60907;53.268;8.764;2023-07-20T08:02:42;1.50;;;1.05;;
72791;SDS011;60907;53.268;8.764;2023-07-20T08:05:08;3.38;;;1.48;;
72791;SDS011;60907;53.268;8.764;2023-07-20T08:07:34;3.38;;;1.38;;
72791;SDS011;60907;53.268;8.764;2023-07-20T08:10:00;2.80;;;1.27;;
72791;SDS011;60907;53.268;8.764;2023-07-20T08:12:26;3.42;;;1.42;;
72791;SDS011;60907;53.268;8.764;2023-07-20T08:14:52;2.60;;;1.35;;
72791;SDS011;60907;53.268;8.764;2023-07-20T08:17:17;5.72;;;1.45;;
72791;SDS011;60907;53.268;8.764;2023-07-20T08:19:43;3.53;;;1.25;;
72791;SDS011;60907;53.268;8.764;2023-07-20T08:22:09;3.72;;;1.58;;
72791;SDS011;60907;53.268;8.764;2023-07-20T08:24:35;4.03;;;1.27;;
72791;SDS011;60907;53.268;8.764;2023-07-20T08:27:03;4.65;;;1.50;;
72791;SDS011;60907;53.268;8.764;2023-07-20T08:29:29;5.40;;;1.60;;
72791;SDS011;60907;53.268;8.764;2023-07-20T08:31:54;5.47;;;1.33;;
72791;SDS011;60907;53.268;8.764;2023-07-20T08:34:20;4.10;;;1.00;;
72791;SDS011;60907;53.268;8.764;2023-07-20T08:36:45;3.50;;;1.33;;
72791;SDS011;60907;53.268;8.764;2023-07-20T08:39:11;4.80;;;2.35;;
72791;SDS011;60907;53.268;8.764;2023-07-20T08:41:36;3.45;;;1.52;;
72791;SDS011;60907;53.268;8.764;2023-07-20T08:44:02;2.42;;;1.17;;
72791;SDS011;60907;53.268;8.764;2023-07-20T08:46:28;4.15;;;1.55;;
72791;SDS011;60907;53.268;8.764;2023-07-20T08:48:54;3.40;;;1.33;;
72791;SDS011;60907;53.268;8.764;2023-07-20T08:51:20;3.60;;;1.35;;
72791;SDS011;60907;53.268;8.764;2023-07-20T08:53:46;3.03;;;1.20;;
72791;SDS011;60907;53.268;8.764;2023-07-20T08:56:12;9.73;;;2.45;;
72791;SDS011;60907;53.268;8.764;2023-07-20T08:58:39;3.90;;;1.40;;
72791;SDS011;60907;53.268;8.764;2023-07-20T09:01:08;5.68;;;1.85;;
72791;SDS011;60907;53.268;8.764;2023-07-20T09:03:34;4.22;;;1.88;;
72791;SDS011;60907;53.268;8.764;2023-07-20T09:05:59;2.92;;;1.20;;
72791;SDS011;60907;53.268;8.764;2023-07-20T09:08:25;4.88;;;1.40;;
72791;SDS011;60907;53.268;8.764;2023-07-20T09:10:50;3.00;;;1.02;;
72791;SDS011;60907;53.268;8.764;2023-07-20T09:13:16;3.72;;;1.30;;
72791;SDS011;60907;53.268;8.764;2023-07-20T09:15:48;2.33;;;1.15;;
72791;SDS011;60907;53.268;8.764;2023-07-20T09:18:28;5.15;;;1.60;;
72791;SDS011;60907;53.268;8.764;2023-07-20T09:21:01;2.97;;;1.38;;
72791;SDS011;60907;53.268;8.764;2023-07-20T09:23:34;5.97;;;1.70;;
72791;SDS011;60907;53.268;8.764;2023-07-20T09:26:11;2.90;;;1.50;;
72791;SDS011;60907;53.268;8.764;2023-07-20T09:28:57;2.22;;;1.30;;
72791;SDS011;60907;53.268;8.764;2023-07-20T09:31:22;4.38;;;2.10;;
72791;SDS011;60907;53.268;8.764;2023-07-20T09:33:48;1.27;;;0.98;;
72791;SDS011;60907;53.268;8.764;2023-07-20T09:36:14;4.22;;;1.15;;
72791;SDS011;60907;53.268;8.764;2023-07-20T09:38:41;4.03;;;1.00;;
72791;SDS011;60907;53.268;8.764;2023-07-20T09:41:08;1.17;;;0.93;;
72791;SDS011;60907;53.268;8.764;2023-07-20T09:43:37;2.40;;;0.90;;
72791;SDS011;60907;53.268;8.764;2023-07-20T09:46:03;3.17;;;1.25;;
72791;SDS011;60907;53.268;8.764;2023-07-20T09:48:29;3.50;;;1.17;;
72791;SDS011;60907;53.268;8.764;2023-07-20T09:50:55;3.42;;;1.42;;
72791;SDS011;60907;53.268;8.764;2023-07-20T09:53:21;3.33;;;1.23;;
72791;SDS011;60907;53.268;8.764;2023-07-20T09:55:47;2.90;;;1.67;;
72791;SDS011;60907;53.268;8.764;2023-07-20T09:58:13;5.20;;;1.27;;
72791;SDS011;60907;53.268;8.764;2023-07-20T10:00:40;3.13;;;1.25;;
72791;SDS011;60907;53.268;8.764;2023-07-20T10:03:08;2.70;;;1.30;;
72791;SDS011;60907;53.268;8.764;2023-07-20T10:05:36;3.42;;;1.10;;
72791;SDS011;60907;53.268;8.764;2023-07-20T10:08:05;3.40;;;1.33;;
72791;SDS011;60907;53.268;8.764;2023-07-20T10:10:36;2.25;;;1.27;;
72791;SDS011;60907;53.268;8.764;2023-07-20T10:13:03;1.63;;;1.13;;
72791;SDS011;60907;53.268;8.764;2023-07-20T10:15:40;2.72;;;0.82;;
72791;SDS011;60907;53.268;8.764;2023-07-20T10:18:25;1.83;;;0.90;;
72791;SDS011;60907;53.268;8.764;2023-07-20T10:20:55;2.92;;;0.82;;
72791;SDS011;60907;53.268;8.764;2023-07-20T10:23:21;1.77;;;0.77;;
72791;SDS011;60907;53.268;8.764;2023-07-20T10:25:47;2.30;;;1.05;;
72791;SDS011;60907;53.268;8.764;2023-07-20T10:28:13;1.88;;;0.80;;
72791;SDS011;60907;53.268;8.764;2023-07-20T10:30:38;1.63;;;0.63;;
72791;SDS011;60907;53.268;8.764;2023-07-20T10:33:04;1.80;;;0.88;;
72791;SDS011;60907;53.268;8.764;2023-07-20T10:35:30;3.05;;;0.75;;
72791;SDS011;60907;53.268;8.764;2023-07-20T10:38:00;1.65;;;0.77;;
72791;SDS011;60907;53.268;8.764;2023-07-20T10:40:38;1.17;;;0.55;;
72791;SDS011;60907;53.268;8.764;2023-07-20T10:43:08;1.55;;;0.82;;
72791;SDS011;60907;53.268;8.764;2023-07-20T10:45:35;2.50;;;0.80;;
72791;SDS011;60907;53.268;8.764;2023-07-20T10:48:03;2.92;;;0.60;;
72791;SDS011;60907;53.268;8.764;2023-07-20T10:50:44;3.03;;;0.88;;
72791;SDS011;60907;53.268;8.764;2023-07-20T10:53:10;3.50;;;0.95;;
72791;SDS011;60907;53.268;8.764;2023-07-20T10:55:36;2.85;;;0.75;;
72791;SDS011;60907;53.268;8.764;2023-07-20T10:58:20;1.73;;;0.60;;
72791;SDS011;60907;53.268;8.764;2023-07-20T11:00:58;1.33;;;0.60;;
72791;SDS011;60907;53.268;8.764;2023-07-20T11:03:27;2.60;;;0.50;;
72791;SDS011;60907;53.268;8.764;2023-07-20T11:05:58;2.95;;;1.08;;
72791;SDS011;60907;53.268;8.764;2023-07-20T11:08:42;0.52;;;0.50;;
72791;SDS011;60907;53.268;8.764;2023-07-20T11:11:29;1.25;;;0.40;;
72791;SDS011;60907;53.268;8.764;2023-07-20T11:13:56;2.55;;;1.00;;
72791;SDS011;60907;53.268;8.764;2023-07-20T11:16:42;3.97;;;0.75;;
72791;SDS011;60907;53.268;8.764;2023-07-20T11:19:15;2.22;;;0.60;;
72791;SDS011;60907;53.268;8.764;2023-07-20T11:21:42;3.25;;;0.68;;
72791;SDS011;60907;53.268;8.764;2023-07-20T11:24:09;2.15;;;0.70;;
72791;SDS011;60907;53.268;8.764;2023-07-20T11:26:48;0.88;;;0.50;;
72791;SDS011;60907;53.268;8.764;2023-07-20T11:29:19;2.00;;;0.45;;
72791;SDS011;60907;53.268;8.764;2023-07-20T11:31:48;1.98;;;0.60;;
72791;SDS011;60907;53.268;8.764;2023-07-20T11:34:15;3.08;;;0.63;;
72791;SDS011;60907;53.268;8.764;2023-07-20T11:36:45;2.20;;;0.95;;
72791;SDS011;60907;53.268;8.764;2023-07-20T11:39:13;1.52;;;0.60;;
72791;SDS011;60907;53.268;8.764;2023-07-20T11:41:44;1.52;;;1.23;;
72791;SDS011;60907;53.268;8.764;2023-07-20T11:44:18;1.85;;;0.90;;
72791;SDS011;60907;53.268;8.764;2023-07-20T11:47:09;2.45;;;0.73;;
72791;SDS011;60907;53.268;8.764;2023-07-20T11:49:37;3.38;;;1.15;;
72791;SDS011;60907;53.268;8.764;2023-07-20T11:52:07;10.10;;;1.73;;
72791;SDS011;60907;53.268;8.764;2023-07-20T11:54:34;3.45;;;1.27;;
72791;SDS011;60907;53.268;8.764;2023-07-20T11:57:03;1.60;;;0.82;;
72791;SDS011;60907;53.268;8.764;2023-07-20T11:59:30;1.95;;;1.30;;
72791;SDS011;60907;53.268;8.764;2023-07-20T12:01:56;1.25;;;0.75;;
72791;SDS011;60907;53.268;8.764;2023-07-20T12:04:22;2.88;;;1.05;;
72791;SDS011;60907;53.268;8.764;2023-07-20T12:06:48;3.05;;;0.70;;
72791;SDS011;60907;53.268;8.764;2023-07-20T12:09:14;2.35;;;0.80;;
72791;SDS011;60907;53.268;8.764;2023-07-20T12:11:42;2.50;;;1.00;;
72791;SDS011;60907;53.268;8.764;2023-07-20T12:14:08;2.05;;;0.88;;
72791;SDS011;60907;53.268;8.764;2023-07-20T12:16:34;1.20;;;0.73;;
72791;SDS011;60907;53.268;8.764;2023-07-20T12:21:30;4.63;;;1.00;;
72791;SDS011;60907;53.268;8.764;2023-07-20T12:23:56;3.17;;;0.47;;
72791;SDS011;60907;53.268;8.764;2023-07-20T12:26:23;0.95;;;0.40;;
72791;SDS011;60907;53.268;8.764;2023-07-20T12:28:49;3.15;;;1.00;;
72791;SDS011;60907;53.268;8.764;2023-07-20T12:31:15;2.25;;;0.60;;
72791;SDS011;60907;53.268;8.764;2023-07-20T12:33:41;3.10;;;0.98;;
72791;SDS011;60907;53.268;8.764;2023-07-20T12:36:07;2.70;;;0.90;;
72791;SDS011;60907;53.268;8.764;2023-07-20T12:38:33;3.03;;;0.75;;
72791;SDS011;60907;53.268;8.764;2023-07-20T12:41:00;1.73;;;0.98;;
72791;SDS011;60907;53.268;8.764;2023-07-20T12:43:26;3.05;;;0.73;;
72791;SDS011;60907;53.268;8.764;2023-07-20T12:45:51;3.20;;;2.05;;
72791;SDS011;60907;53.268;8.764;2023-07-20T12:48:17;2.75;;;0.70;;
72791;SDS011;60907;53.268;8.764;2023-07-20T12:50:43;3.38;;;0.65;;
72791;SDS011;60907;53.268;8.764;2023-07-20T12:53:08;3.20;;;0.55;;
72791;SDS011;60907;53.268;8.764;2023-07-20T12:55:34;1.02;;;0.93;;
72791;SDS011;60907;53.268;8.764;2023-07-20T12:57:59;3.28;;;0.40;;
72791;SDS011;60907;53.268;8.764;2023-07-20T13:00:24;1.23;;;0.30;;
72791;SDS011;60907;53.268;8.764;2023-07-20T13:02:50;3.17;;;0.73;;
72791;SDS011;60907;53.268;8.764;2023-07-20T13:05:16;2.90;;;0.90;;
72791;SDS011;60907;53.268;8.764;2023-07-20T13:07:42;1.42;;;0.52;;
72791;SDS011;60907;53.268;8.764;2023-07-20T13:10:08;4.47;;;1.50;;
72791;SDS011;60907;53.268;8.764;2023-07-20T13:12:34;1.65;;;0.57;;
72791;SDS011;60907;53.268;8.764;2023-07-20T13:15:01;2.15;;;0.80;;
72791;SDS011;60907;53.268;8.764;2023-07-20T13:17:30;2.70;;;0.80;;
72791;SDS011;60907;53.268;8.764;2023-07-20T13:19:56;5.20;;;0.77;;
72791;SDS011;60907;53.268;8.764;2023-07-20T13:22:22;1.58;;;0.73;;
72791;SDS011;60907;53.268;8.764;2023-07-20T13:24:48;1.00;;;0.73;;
72791;SDS011;60907;53.268;8.764;2023-07-20T13:27:17;1.30;;;0.70;;
72791;SDS011;60907;53.268;8.764;2023-07-20T13:29:43;3.28;;;0.75;;
72791;SDS011;60907;53.268;8.764;2023-07-20T13:32:08;3.05;;;0.88;;
72791;SDS011;60907;53.268;8.764;2023-07-20T13:34:34;2.17;;;0.68;;
72791;SDS011;60907;53.268;8.764;2023-07-20T13:37:00;6.28;;;0.70;;
72791;SDS011;60907;53.268;8.764;2023-07-20T13:39:25;3.05;;;1.02;;
72791;SDS011;60907;53.268;8.764;2023-07-20T13:44:19;0.60;;;0.50;;
72791;SDS011;60907;53.268;8.764;2023-07-20T13:46:45;0.75;;;0.63;;
72791;SDS011;60907;53.268;8.764;2023-07-20T13:49:11;1.25;;;0.80;;
72791;SDS011;60907;53.268;8.764;2023-07-20T13:51:36;1.90;;;0.88;;
72791;SDS011;60907;53.268;8.764;2023-07-20T13:54:02;1.35;;;0.88;;
72791;SDS011;60907;53.268;8.764;2023-07-20T13:56:27;1.98;;;0.43;;
72791;SDS011;60907;53.268;8.764;2023-07-20T13:58:53;3.13;;;0.80;;
72791;SDS011;60907;53.268;8.764;2023-07-20T14:01:18;1.52;;;0.70;;
72791;SDS011;60907;53.268;8.764;2023-07-20T14:03:44;1.27;;;1.00;;
72791;SDS011;60907;53.268;8.764;2023-07-20T14:06:09;3.70;;;0.77;;
72791;SDS011;60907;53.268;8.764;2023-07-20T14:08:37;2.35;;;0.50;;
72791;SDS011;60907;53.268;8.764;2023-07-20T14:11:02;2.92;;;1.13;;
72791;SDS011;60907;53.268;8.764;2023-07-20T14:13:28;2.15;;;1.45;;
72791;SDS011;60907;53.268;8.764;2023-07-20T14:15:53;1.83;;;0.70;;
72791;SDS011;60907;53.268;8.764;2023-07-20T14:18:19;2.10;;;0.57;;
72791;SDS011;60907;53.268;8.764;2023-07-20T14:20:44;2.08;;;0.90;;
72791;SDS011;60907;53.268;8.764;2023-07-20T14:23:10;1.88;;;0.70;;
72791;SDS011;60907;53.268;8.764;2023-07-20T14:25:35;2.83;;;0.90;;
72791;SDS011;60907;53.268;8.764;2023-07-20T14:28:01;1.65;;;0.50;;
72791;SDS011;60907;53.268;8.764;2023-07-20T14:30:26;3.85;;;0.80;;
72791;SDS011;60907;53.268;8.764;2023-07-20T14:32:52;3.33;;;0.70;;
72791;SDS011;60907;53.268;8.764;2023-07-20T14:35:17;2.35;;;0.73;;
72791;SDS011;60907;53.268;8.764;2023-07-20T14:37:43;3.42;;;0.80;;
72791;SDS011;60907;53.268;8.764;2023-07-20T14:40:12;3.10;;;0.75;;
72791;SDS011;60907;53.268;8.764;2023-07-20T14:42:37;1.95;;;0.70;;
72791;SDS011;60907;53.268;8.764;2023-07-20T14:45:03;2.53;;;0.88;;
72791;SDS011;60907;53.268;8.764;2023-07-20T14:47:30;2.63;;;1.00;;
72791;SDS011;60907;53.268;8.764;2023-07-20T14:50:00;3.45;;;0.57;;
72791;SDS011;60907;53.268;8.764;2023-07-20T14:52:27;1.80;;;0.65;;
72791;SDS011;60907;53.268;8.764;2023-07-20T14:54:53;1.65;;;1.33;;
72791;SDS011;60907;53.268;8.764;2023-07-20T14:57:19;3.00;;;0.90;;
72791;SDS011;60907;53.268;8.764;2023-07-20T14:59:45;2.40;;;0.80;;
72791;SDS011;60907;53.268;8.764;2023-07-20T15:02:11;1.35;;;0.75;;
72791;SDS011;60907;53.268;8.764;2023-07-20T15:04:37;1.90;;;0.50;;